Strona główna
METAR-TAF:

METAR-TAF

Lotnisko :

Port lotniczy Sibu

Sibu, Malezja

Szerokość geograficzna: 02-20N, Długość geograficzna: 111-50E, wysokość: 8 m

Aktualna obserwacja pogody

Raport powstał 16 minut temu, godzina 23:00 UTC
Wiatr 3 kt od wschodnio-południowy wschód, zmienny między północny wschód i południe
Temperatura 23°C
Wilgotność 94%
Ciśnienie 1012 hPa
Widzialność 10 km lub więcej
Mało chmury na wysokości 600 ft
Rozproszone chmury na wysokości 1600 ft
słaby deszcz

METAR: WBGS 102300Z 12003KT 050V180 9999 -RA FEW006 SCT016 23/22 Q1012

czas: 07:16 (23:16 UTC)

Prognoza

Raport powstał 6 godziny i 16 minut temu, godzina 17:00 UTC
Prognoza ważna od 10 godzina 18 UTC do 11 godzina 18 UTC
Wiatr 3 kt z kierunków zmiennych
Widzialność 10 km lub więcej
Rozproszone chmury na wysokości 1600 ft

TAF: WBGS 101700Z 1018/1118 VRB03KT 9999 SCT016

Obserwacja i prognoza pogody dla ponad 4000 lotnisk (raport METAR i TAF).

Dostępne stacje oznaczono żółtymi i czerwonymi punktami na mapie.

Najedź kursorem aby zobaczyć nazwę stacji.

Kliknij aby zobaczyć obserwacje i prognozy pogody.

Aby zmienić mapę: kliknij na zielony przycisk z czarnym krzyżykiem, aby powiększyć; na zielony przycisk z myślnikiem, aby pomniejszyć; na zielone strzałki, aby przejść do map sąsiednich.


METAR-TAF: